sensor_id;sensor_type;location;lat;lon;timestamp;P1;durP1;ratioP1;P2;durP2;ratioP2
11614;SDS011;5863;52.832;4.758;2024-02-04T00:00:31;24.33;;;12.73;;
11614;SDS011;5863;52.832;4.758;2024-02-04T00:02:59;22.92;;;10.75;;
11614;SDS011;5863;52.832;4.758;2024-02-04T00:05:26;16.85;;;7.05;;
11614;SDS011;5863;52.832;4.758;2024-02-04T00:07:53;15.57;;;6.10;;
11614;SDS011;5863;52.832;4.758;2024-02-04T00:10:20;12.25;;;5.10;;
11614;SDS011;5863;52.832;4.758;2024-02-04T00:12:47;14.73;;;4.70;;
11614;SDS011;5863;52.832;4.758;2024-02-04T00:15:14;15.13;;;3.67;;
11614;SDS011;5863;52.832;4.758;2024-02-04T00:17:41;8.40;;;3.58;;
11614;SDS011;5863;52.832;4.758;2024-02-04T00:20:09;13.73;;;3.13;;
11614;SDS011;5863;52.832;4.758;2024-02-04T00:22:36;11.20;;;2.78;;
11614;SDS011;5863;52.832;4.758;2024-02-04T00:25:03;16.00;;;3.47;;
11614;SDS011;5863;52.832;4.758;2024-02-04T00:27:31;10.35;;;2.40;;
11614;SDS011;5863;52.832;4.758;2024-02-04T00:29:58;12.50;;;2.80;;
11614;SDS011;5863;52.832;4.758;2024-02-04T00:32:25;8.52;;;2.65;;
11614;SDS011;5863;52.832;4.758;2024-02-04T00:34:52;8.23;;;2.65;;
11614;SDS011;5863;52.832;4.758;2024-02-04T00:37:20;9.85;;;2.50;;
11614;SDS011;5863;52.832;4.758;2024-02-04T00:39:47;10.48;;;2.83;;
11614;SDS011;5863;52.832;4.758;2024-02-04T00:42:14;19.77;;;3.10;;
11614;SDS011;5863;52.832;4.758;2024-02-04T00:44:41;11.98;;;2.72;;
11614;SDS011;5863;52.832;4.758;2024-02-04T00:47:08;8.73;;;2.42;;
11614;SDS011;5863;52.832;4.758;2024-02-04T00:49:34;8.82;;;2.35;;
11614;SDS011;5863;52.832;4.758;2024-02-04T00:52:01;7.82;;;2.78;;
11614;SDS011;5863;52.832;4.758;2024-02-04T00:54:30;8.85;;;2.33;;
11614;SDS011;5863;52.832;4.758;2024-02-04T00:56:57;12.60;;;2.95;;
11614;SDS011;5863;52.832;4.758;2024-02-04T00:59:25;10.48;;;2.95;;
11614;SDS011;5863;52.832;4.758;2024-02-04T01:01:51;11.45;;;2.63;;
11614;SDS011;5863;52.832;4.758;2024-02-04T01:04:20;13.18;;;2.75;;
11614;SDS011;5863;52.832;4.758;2024-02-04T01:06:48;11.10;;;2.90;;
11614;SDS011;5863;52.832;4.758;2024-02-04T01:09:15;13.80;;;3.90;;
11614;SDS011;5863;52.832;4.758;2024-02-04T01:11:43;21.33;;;5.97;;
11614;SDS011;5863;52.832;4.758;2024-02-04T01:14:10;15.93;;;6.07;;
11614;SDS011;5863;52.832;4.758;2024-02-04T01:16:37;19.60;;;7.10;;
11614;SDS011;5863;52.832;4.758;2024-02-04T01:19:03;16.50;;;5.75;;
11614;SDS011;5863;52.832;4.758;2024-02-04T01:21:30;18.35;;;5.78;;
11614;SDS011;5863;52.832;4.758;2024-02-04T01:23:57;18.67;;;6.70;;
11614;SDS011;5863;52.832;4.758;2024-02-04T01:26:24;15.02;;;5.43;;
11614;SDS011;5863;52.832;4.758;2024-02-04T01:28:52;14.65;;;5.32;;
11614;SDS011;5863;52.832;4.758;2024-02-04T01:31:19;17.27;;;5.75;;
11614;SDS011;5863;52.832;4.758;2024-02-04T01:33:46;16.05;;;6.63;;
11614;SDS011;5863;52.832;4.758;2024-02-04T01:36:12;18.80;;;6.75;;
11614;SDS011;5863;52.832;4.758;2024-02-04T01:38:39;18.48;;;6.10;;
11614;SDS011;5863;52.832;4.758;2024-02-04T01:41:06;16.65;;;6.03;;
11614;SDS011;5863;52.832;4.758;2024-02-04T01:43:33;17.65;;;6.18;;
11614;SDS011;5863;52.832;4.758;2024-02-04T01:46:02;12.43;;;5.45;;
11614;SDS011;5863;52.832;4.758;2024-02-04T01:48:29;17.42;;;5.43;;
11614;SDS011;5863;52.832;4.758;2024-02-04T01:50:55;16.45;;;4.88;;
11614;SDS011;5863;52.832;4.758;2024-02-04T01:53:25;15.23;;;5.25;;
11614;SDS011;5863;52.832;4.758;2024-02-04T01:55:54;16.83;;;5.13;;
11614;SDS011;5863;52.832;4.758;2024-02-04T01:58:21;20.20;;;5.40;;
11614;SDS011;5863;52.832;4.758;2024-02-04T02:00:49;13.85;;;4.60;;
11614;SDS011;5863;52.832;4.758;2024-02-04T02:03:17;15.85;;;4.35;;
11614;SDS011;5863;52.832;4.758;2024-02-04T02:05:45;17.90;;;4.45;;
11614;SDS011;5863;52.832;4.758;2024-02-04T02:08:12;19.00;;;4.40;;
11614;SDS011;5863;52.832;4.758;2024-02-04T02:10:40;12.20;;;3.63;;
11614;SDS011;5863;52.832;4.758;2024-02-04T02:13:14;15.75;;;3.78;;
11614;SDS011;5863;52.832;4.758;2024-02-04T02:15:44;13.43;;;3.00;;
11614;SDS011;5863;52.832;4.758;2024-02-04T02:18:15;11.98;;;3.13;;
11614;SDS011;5863;52.832;4.758;2024-02-04T02:20:54;21.83;;;3.20;;
11614;SDS011;5863;52.832;4.758;2024-02-04T02:23:34;8.68;;;2.75;;
11614;SDS011;5863;52.832;4.758;2024-02-04T02:26:08;15.18;;;2.38;;
11614;SDS011;5863;52.832;4.758;2024-02-04T02:28:35;12.75;;;2.60;;
11614;SDS011;5863;52.832;4.758;2024-02-04T02:31:02;11.40;;;2.90;;
11614;SDS011;5863;52.832;4.758;2024-02-04T02:33:29;15.57;;;2.90;;
11614;SDS011;5863;52.832;4.758;2024-02-04T02:35:56;13.35;;;3.30;;
11614;SDS011;5863;52.832;4.758;2024-02-04T02:38:25;12.10;;;2.40;;
11614;SDS011;5863;52.832;4.758;2024-02-04T02:40:58;14.30;;;2.42;;
11614;SDS011;5863;52.832;4.758;2024-02-04T02:43:27;14.05;;;3.00;;
11614;SDS011;5863;52.832;4.758;2024-02-04T02:45:55;18.27;;;3.10;;
11614;SDS011;5863;52.832;4.758;2024-02-04T02:48:22;15.43;;;2.45;;
11614;SDS011;5863;52.832;4.758;2024-02-04T02:50:50;18.08;;;2.90;;
11614;SDS011;5863;52.832;4.758;2024-02-04T02:53:17;12.88;;;2.67;;
11614;SDS011;5863;52.832;4.758;2024-02-04T02:55:45;11.40;;;2.60;;
11614;SDS011;5863;52.832;4.758;2024-02-04T02:58:12;10.40;;;2.60;;
11614;SDS011;5863;52.832;4.758;2024-02-04T03:00:41;15.32;;;2.92;;
11614;SDS011;5863;52.832;4.758;2024-02-04T03:03:08;12.68;;;2.85;;
11614;SDS011;5863;52.832;4.758;2024-02-04T03:05:35;7.78;;;2.22;;
11614;SDS011;5863;52.832;4.758;2024-02-04T03:08:02;13.05;;;2.70;;
11614;SDS011;5863;52.832;4.758;2024-02-04T03:10:29;16.13;;;2.70;;
11614;SDS011;5863;52.832;4.758;2024-02-04T03:12:56;16.70;;;2.92;;
11614;SDS011;5863;52.832;4.758;2024-02-04T03:15:23;11.68;;;2.60;;
11614;SDS011;5863;52.832;4.758;2024-02-04T03:17:51;10.07;;;2.40;;
11614;SDS011;5863;52.832;4.758;2024-02-04T03:20:18;14.02;;;2.97;;
11614;SDS011;5863;52.832;4.758;2024-02-04T03:22:47;7.25;;;2.10;;
11614;SDS011;5863;52.832;4.758;2024-02-04T03:25:14;10.57;;;2.42;;
11614;SDS011;5863;52.832;4.758;2024-02-04T03:27:41;8.60;;;2.50;;
11614;SDS011;5863;52.832;4.758;2024-02-04T03:30:08;12.10;;;2.95;;
11614;SDS011;5863;52.832;4.758;2024-02-04T03:32:35;15.35;;;2.83;;
11614;SDS011;5863;52.832;4.758;2024-02-04T03:35:04;12.15;;;2.45;;
11614;SDS011;5863;52.832;4.758;2024-02-04T03:37:31;16.42;;;3.00;;
11614;SDS011;5863;52.832;4.758;2024-02-04T03:39:58;11.80;;;2.30;;
11614;SDS011;5863;52.832;4.758;2024-02-04T03:42:24;23.95;;;3.42;;
11614;SDS011;5863;52.832;4.758;2024-02-04T03:44:51;15.52;;;3.05;;
11614;SDS011;5863;52.832;4.758;2024-02-04T03:47:19;13.05;;;3.40;;
11614;SDS011;5863;52.832;4.758;2024-02-04T03:49:46;21.60;;;3.72;;
11614;SDS011;5863;52.832;4.758;2024-02-04T03:52:14;12.63;;;3.15;;
11614;SDS011;5863;52.832;4.758;2024-02-04T03:54:41;13.38;;;3.28;;
11614;SDS011;5863;52.832;4.758;2024-02-04T03:57:08;13.70;;;3.10;;
11614;SDS011;5863;52.832;4.758;2024-02-04T03:59:35;15.32;;;3.08;;
11614;SDS011;5863;52.832;4.758;2024-02-04T04:02:02;13.00;;;3.03;;
11614;SDS011;5863;52.832;4.758;2024-02-04T04:04:29;15.82;;;2.97;;
11614;SDS011;5863;52.832;4.758;2024-02-04T04:06:55;14.57;;;2.53;;
11614;SDS011;5863;52.832;4.758;2024-02-04T04:09:24;15.52;;;2.63;;
11614;SDS011;5863;52.832;4.758;2024-02-04T04:11:50;14.02;;;2.75;;
11614;SDS011;5863;52.832;4.758;2024-02-04T04:14:17;15.45;;;2.75;;
11614;SDS011;5863;52.832;4.758;2024-02-04T04:16:44;12.75;;;2.92;;
11614;SDS011;5863;52.832;4.758;2024-02-04T04:19:11;12.32;;;3.20;;
11614;SDS011;5863;52.832;4.758;2024-02-04T04:21:38;18.05;;;2.92;;
11614;SDS011;5863;52.832;4.758;2024-02-04T04:24:05;16.40;;;3.05;;
11614;SDS011;5863;52.832;4.758;2024-02-04T04:26:33;14.20;;;3.03;;
11614;SDS011;5863;52.832;4.758;2024-02-04T04:29:00;21.20;;;3.40;;
11614;SDS011;5863;52.832;4.758;2024-02-04T04:31:27;11.25;;;3.08;;
11614;SDS011;5863;52.832;4.758;2024-02-04T04:33:54;21.10;;;3.45;;
11614;SDS011;5863;52.832;4.758;2024-02-04T04:36:21;10.73;;;2.78;;
11614;SDS011;5863;52.832;4.758;2024-02-04T04:38:48;15.55;;;3.65;;
11614;SDS011;5863;52.832;4.758;2024-02-04T04:41:15;17.85;;;3.75;;
11614;SDS011;5863;52.832;4.758;2024-02-04T04:43:43;12.75;;;3.10;;
11614;SDS011;5863;52.832;4.758;2024-02-04T04:46:10;14.90;;;2.90;;
11614;SDS011;5863;52.832;4.758;2024-02-04T04:48:37;14.85;;;3.15;;
11614;SDS011;5863;52.832;4.758;2024-02-04T04:51:04;14.10;;;3.20;;
11614;SDS011;5863;52.832;4.758;2024-02-04T04:53:33;18.17;;;2.97;;
11614;SDS011;5863;52.832;4.758;2024-02-04T04:56:00;15.93;;;3.30;;
11614;SDS011;5863;52.832;4.758;2024-02-04T04:58:27;15.10;;;2.88;;
11614;SDS011;5863;52.832;4.758;2024-02-04T05:00:55;15.32;;;3.10;;
11614;SDS011;5863;52.832;4.758;2024-02-04T05:03:22;11.02;;;2.70;;
11614;SDS011;5863;52.832;4.758;2024-02-04T05:05:49;15.52;;;3.53;;
11614;SDS011;5863;52.832;4.758;2024-02-04T05:08:15;17.13;;;3.53;;
11614;SDS011;5863;52.832;4.758;2024-02-04T05:10:42;16.52;;;3.35;;
11614;SDS011;5863;52.832;4.758;2024-02-04T05:13:09;20.50;;;3.58;;
11614;SDS011;5863;52.832;4.758;2024-02-04T05:15:36;10.32;;;2.65;;
11614;SDS011;5863;52.832;4.758;2024-02-04T05:18:04;10.15;;;2.83;;
11614;SDS011;5863;52.832;4.758;2024-02-04T05:20:31;20.02;;;3.70;;
11614;SDS011;5863;52.832;4.758;2024-02-04T05:22:58;11.05;;;2.90;;
11614;SDS011;5863;52.832;4.758;2024-02-04T05:25:25;16.30;;;3.50;;
11614;SDS011;5863;52.832;4.758;2024-02-04T05:27:52;18.17;;;3.15;;
11614;SDS011;5863;52.832;4.758;2024-02-04T05:30:19;16.30;;;3.28;;
11614;SDS011;5863;52.832;4.758;2024-02-04T05:32:45;13.73;;;2.83;;
11614;SDS011;5863;52.832;4.758;2024-02-04T05:35:14;12.82;;;3.33;;
11614;SDS011;5863;52.832;4.758;2024-02-04T05:37:40;12.25;;;3.15;;
11614;SDS011;5863;52.832;4.758;2024-02-04T05:40:07;17.05;;;3.25;;
11614;SDS011;5863;52.832;4.758;2024-02-04T05:42:34;14.52;;;3.13;;
11614;SDS011;5863;52.832;4.758;2024-02-04T05:45:02;13.27;;;3.28;;
11614;SDS011;5863;52.832;4.758;2024-02-04T05:47:30;20.80;;;3.78;;
11614;SDS011;5863;52.832;4.758;2024-02-04T05:49:57;7.25;;;2.65;;
11614;SDS011;5863;52.832;4.758;2024-02-04T05:52:25;14.88;;;2.60;;
11614;SDS011;5863;52.832;4.758;2024-02-04T05:54:52;16.08;;;3.10;;
11614;SDS011;5863;52.832;4.758;2024-02-04T05:57:19;15.60;;;3.00;;
11614;SDS011;5863;52.832;4.758;2024-02-04T05:59:46;18.45;;;3.33;;
11614;SDS011;5863;52.832;4.758;2024-02-04T06:02:13;17.70;;;2.55;;
11614;SDS011;5863;52.832;4.758;2024-02-04T06:04:40;12.98;;;2.85;;
11614;SDS011;5863;52.832;4.758;2024-02-04T06:07:07;15.55;;;2.80;;
11614;SDS011;5863;52.832;4.758;2024-02-04T06:09:35;12.05;;;2.55;;
11614;SDS011;5863;52.832;4.758;2024-02-04T06:12:02;11.20;;;2.88;;
11614;SDS011;5863;52.832;4.758;2024-02-04T06:14:32;15.60;;;3.90;;
11614;SDS011;5863;52.832;4.758;2024-02-04T06:16:59;13.15;;;3.00;;
11614;SDS011;5863;52.832;4.758;2024-02-04T06:19:26;17.67;;;3.22;;
11614;SDS011;5863;52.832;4.758;2024-02-04T06:21:53;16.75;;;3.05;;
11614;SDS011;5863;52.832;4.758;2024-02-04T06:24:20;14.38;;;3.10;;
11614;SDS011;5863;52.832;4.758;2024-02-04T06:26:48;9.75;;;2.72;;
11614;SDS011;5863;52.832;4.758;2024-02-04T06:29:15;13.23;;;3.53;;
11614;SDS011;5863;52.832;4.758;2024-02-04T06:31:43;11.60;;;2.67;;
11614;SDS011;5863;52.832;4.758;2024-02-04T06:34:11;11.65;;;2.70;;
11614;SDS011;5863;52.832;4.758;2024-02-04T06:36:41;9.10;;;2.55;;
11614;SDS011;5863;52.832;4.758;2024-02-04T06:39:09;7.22;;;2.30;;
11614;SDS011;5863;52.832;4.758;2024-02-04T06:41:36;12.13;;;3.03;;
11614;SDS011;5863;52.832;4.758;2024-02-04T06:44:04;10.50;;;2.70;;
11614;SDS011;5863;52.832;4.758;2024-02-04T06:46:31;14.57;;;2.55;;
11614;SDS011;5863;52.832;4.758;2024-02-04T06:48:58;14.57;;;2.92;;
11614;SDS011;5863;52.832;4.758;2024-02-04T06:51:26;11.45;;;2.50;;
11614;SDS011;5863;52.832;4.758;2024-02-04T06:53:53;10.98;;;3.10;;
11614;SDS011;5863;52.832;4.758;2024-02-04T06:56:20;10.75;;;2.20;;
11614;SDS011;5863;52.832;4.758;2024-02-04T06:58:46;11.40;;;2.55;;
11614;SDS011;5863;52.832;4.758;2024-02-04T07:01:15;9.75;;;2.30;;
11614;SDS011;5863;52.832;4.758;2024-02-04T07:03:41;8.13;;;2.15;;
11614;SDS011;5863;52.832;4.758;2024-02-04T07:06:08;16.58;;;3.38;;
11614;SDS011;5863;52.832;4.758;2024-02-04T07:08:35;8.13;;;2.25;;
11614;SDS011;5863;52.832;4.758;2024-02-04T07:11:02;9.48;;;2.60;;
11614;SDS011;5863;52.832;4.758;2024-02-04T07:13:29;11.27;;;2.13;;
11614;SDS011;5863;52.832;4.758;2024-02-04T07:15:56;8.45;;;2.90;;
11614;SDS011;5863;52.832;4.758;2024-02-04T07:18:24;13.10;;;2.70;;
11614;SDS011;5863;52.832;4.758;2024-02-04T07:20:51;8.80;;;2.58;;
11614;SDS011;5863;52.832;4.758;2024-02-04T07:23:18;10.05;;;2.50;;
11614;SDS011;5863;52.832;4.758;2024-02-04T07:25:45;8.77;;;2.47;;
11614;SDS011;5863;52.832;4.758;2024-02-04T07:28:12;10.65;;;3.20;;
11614;SDS011;5863;52.832;4.758;2024-02-04T07:30:38;8.52;;;2.35;;
11614;SDS011;5863;52.832;4.758;2024-02-04T07:33:05;10.00;;;3.00;;
11614;SDS011;5863;52.832;4.758;2024-02-04T07:35:34;8.23;;;2.85;;
11614;SDS011;5863;52.832;4.758;2024-02-04T07:38:00;12.35;;;3.75;;
11614;SDS011;5863;52.832;4.758;2024-02-04T07:40:28;13.25;;;3.40;;
11614;SDS011;5863;52.832;4.758;2024-02-04T07:42:56;12.57;;;3.10;;
11614;SDS011;5863;52.832;4.758;2024-02-04T07:45:23;13.77;;;3.40;;
11614;SDS011;5863;52.832;4.758;2024-02-04T07:47:50;10.82;;;3.28;;
11614;SDS011;5863;52.832;4.758;2024-02-04T07:50:17;10.27;;;3.42;;
11614;SDS011;5863;52.832;4.758;2024-02-04T07:52:45;12.10;;;3.22;;
11614;SDS011;5863;52.832;4.758;2024-02-04T07:55:12;8.90;;;3.03;;
11614;SDS011;5863;52.832;4.758;2024-02-04T07:57:40;13.82;;;3.10;;
11614;SDS011;5863;52.832;4.758;2024-02-04T08:00:07;10.93;;;3.55;;
11614;SDS011;5863;52.832;4.758;2024-02-04T08:02:35;11.07;;;3.00;;
11614;SDS011;5863;52.832;4.758;2024-02-04T08:05:02;15.98;;;3.20;;
11614;SDS011;5863;52.832;4.758;2024-02-04T08:07:30;16.88;;;3.72;;
11614;SDS011;5863;52.832;4.758;2024-02-04T08:09:58;11.82;;;3.53;;
11614;SDS011;5863;52.832;4.758;2024-02-04T08:12:25;11.88;;;3.05;;
11614;SDS011;5863;52.832;4.758;2024-02-04T08:14:52;14.13;;;3.40;;
11614;SDS011;5863;52.832;4.758;2024-02-04T08:17:19;11.93;;;3.35;;
11614;SDS011;5863;52.832;4.758;2024-02-04T08:19:46;10.75;;;3.72;;
11614;SDS011;5863;52.832;4.758;2024-02-04T08:22:12;12.80;;;3.90;;
11614;SDS011;5863;52.832;4.758;2024-02-04T08:24:39;10.05;;;3.33;;
11614;SDS011;5863;52.832;4.758;2024-02-04T08:27:07;11.20;;;3.95;;
11614;SDS011;5863;52.832;4.758;2024-02-04T08:29:35;11.18;;;3.35;;
11614;SDS011;5863;52.832;4.758;2024-02-04T08:32:02;14.35;;;4.47;;
11614;SDS011;5863;52.832;4.758;2024-02-04T08:34:29;6.65;;;3.25;;
11614;SDS011;5863;52.832;4.758;2024-02-04T08:36:56;11.85;;;3.10;;
11614;SDS011;5863;52.832;4.758;2024-02-04T08:39:23;9.70;;;3.13;;
11614;SDS011;5863;52.832;4.758;2024-02-04T08:41:50;19.52;;;3.80;;
11614;SDS011;5863;52.832;4.758;2024-02-04T08:44:19;6.70;;;3.38;;
11614;SDS011;5863;52.832;4.758;2024-02-04T08:46:45;9.25;;;3.55;;
11614;SDS011;5863;52.832;4.758;2024-02-04T08:49:12;11.02;;;3.83;;
11614;SDS011;5863;52.832;4.758;2024-02-04T08:51:39;10.00;;;4.18;;
11614;SDS011;5863;52.832;4.758;2024-02-04T08:54:06;9.25;;;3.60;;
11614;SDS011;5863;52.832;4.758;2024-02-04T08:56:33;10.20;;;4.30;;
11614;SDS011;5863;52.832;4.758;2024-02-04T08:59:00;10.63;;;4.13;;
11614;SDS011;5863;52.832;4.758;2024-02-04T09:01:28;10.23;;;4.47;;
11614;SDS011;5863;52.832;4.758;2024-02-04T09:03:55;12.02;;;4.55;;
11614;SDS011;5863;52.832;4.758;2024-02-04T09:06:22;10.80;;;5.30;;
11614;SDS011;5863;52.832;4.758;2024-02-04T09:08:49;13.80;;;6.32;;
11614;SDS011;5863;52.832;4.758;2024-02-04T09:11:16;13.25;;;5.40;;
11614;SDS011;5863;52.832;4.758;2024-02-04T09:13:45;12.65;;;4.32;;
11614;SDS011;5863;52.832;4.758;2024-02-04T09:16:12;11.70;;;4.47;;
11614;SDS011;5863;52.832;4.758;2024-02-04T09:18:41;8.55;;;4.07;;
11614;SDS011;5863;52.832;4.758;2024-02-04T09:21:07;12.98;;;4.55;;
11614;SDS011;5863;52.832;4.758;2024-02-04T09:23:34;12.90;;;4.55;;
11614;SDS011;5863;52.832;4.758;2024-02-04T09:26:01;8.95;;;3.58;;
11614;SDS011;5863;52.832;4.758;2024-02-04T09:28:28;19.42;;;4.07;;
11614;SDS011;5863;52.832;4.758;2024-02-04T09:30:55;13.65;;;3.70;;
11614;SDS011;5863;52.832;4.758;2024-02-04T09:33:21;13.55;;;3.55;;
11614;SDS011;5863;52.832;4.758;2024-02-04T09:35:50;7.85;;;3.80;;
11614;SDS011;5863;52.832;4.758;2024-02-04T09:38:17;15.77;;;3.90;;
11614;SDS011;5863;52.832;4.758;2024-02-04T09:40:43;8.43;;;4.07;;
11614;SDS011;5863;52.832;4.758;2024-02-04T09:43:10;13.20;;;3.83;;
11614;SDS011;5863;52.832;4.758;2024-02-04T09:45:38;8.68;;;3.88;;
11614;SDS011;5863;52.832;4.758;2024-02-04T09:48:06;12.30;;;3.90;;
11614;SDS011;5863;52.832;4.758;2024-02-04T09:50:34;10.10;;;3.10;;
11614;SDS011;5863;52.832;4.758;2024-02-04T09:53:02;14.68;;;3.45;;
11614;SDS011;5863;52.832;4.758;2024-02-04T09:55:33;13.70;;;3.92;;
11614;SDS011;5863;52.832;4.758;2024-02-04T09:58:03;8.70;;;3.10;;
11614;SDS011;5863;52.832;4.758;2024-02-04T10:00:30;12.07;;;3.22;;
11614;SDS011;5863;52.832;4.758;2024-02-04T10:02:59;8.07;;;2.78;;
11614;SDS011;5863;52.832;4.758;2024-02-04T10:05:27;10.73;;;2.40;;
11614;SDS011;5863;52.832;4.758;2024-02-04T10:07:54;8.25;;;2.78;;
11614;SDS011;5863;52.832;4.758;2024-02-04T10:10:22;10.88;;;2.80;;
11614;SDS011;5863;52.832;4.758;2024-02-04T10:12:49;9.80;;;2.70;;
11614;SDS011;5863;52.832;4.758;2024-02-04T10:15:16;11.30;;;3.13;;
11614;SDS011;5863;52.832;4.758;2024-02-04T10:17:44;10.30;;;3.05;;
11614;SDS011;5863;52.832;4.758;2024-02-04T10:20:12;13.32;;;3.20;;
11614;SDS011;5863;52.832;4.758;2024-02-04T10:22:39;9.45;;;2.63;;
11614;SDS011;5863;52.832;4.758;2024-02-04T10:25:06;11.85;;;2.75;;
11614;SDS011;5863;52.832;4.758;2024-02-04T10:27:34;13.50;;;2.60;;
11614;SDS011;5863;52.832;4.758;2024-02-04T10:30:02;11.65;;;2.72;;
11614;SDS011;5863;52.832;4.758;2024-02-04T10:32:29;13.48;;;2.53;;
11614;SDS011;5863;52.832;4.758;2024-02-04T10:34:57;9.02;;;2.22;;
11614;SDS011;5863;52.832;4.758;2024-02-04T10:37:24;9.65;;;2.45;;
11614;SDS011;5863;52.832;4.758;2024-02-04T10:39:51;7.70;;;2.40;;
11614;SDS011;5863;52.832;4.758;2024-02-04T10:42:18;15.90;;;2.75;;
11614;SDS011;5863;52.832;4.758;2024-02-04T10:44:52;11.10;;;2.55;;
11614;SDS011;5863;52.832;4.758;2024-02-04T10:47:21;12.20;;;2.92;;
11614;SDS011;5863;52.832;4.758;2024-02-04T10:49:50;12.07;;;2.55;;
11614;SDS011;5863;52.832;4.758;2024-02-04T10:52:19;6.55;;;2.63;;
11614;SDS011;5863;52.832;4.758;2024-02-04T10:54:48;9.98;;;2.88;;
11614;SDS011;5863;52.832;4.758;2024-02-04T10:57:17;16.95;;;3.28;;
11614;SDS011;5863;52.832;4.758;2024-02-04T10:59:47;13.23;;;2.85;;
11614;SDS011;5863;52.832;4.758;2024-02-04T11:02:16;10.57;;;2.88;;
11614;SDS011;5863;52.832;4.758;2024-02-04T11:04:43;12.30;;;2.53;;
11614;SDS011;5863;52.832;4.758;2024-02-04T11:07:14;10.63;;;2.42;;
11614;SDS011;5863;52.832;4.758;2024-02-04T11:09:41;11.90;;;2.58;;
11614;SDS011;5863;52.832;4.758;2024-02-04T11:12:12;12.70;;;2.30;;
11614;SDS011;5863;52.832;4.758;2024-02-04T11:14:41;10.75;;;2.60;;
11614;SDS011;5863;52.832;4.758;2024-02-04T11:17:24;14.93;;;2.97;;
11614;SDS011;5863;52.832;4.758;2024-02-04T11:20:22;12.23;;;2.50;;
11614;SDS011;5863;52.832;4.758;2024-02-04T11:23:16;11.23;;;2.45;;
11614;SDS011;5863;52.832;4.758;2024-02-04T11:25:53;12.32;;;2.70;;
11614;SDS011;5863;52.832;4.758;2024-02-04T11:28:22;11.20;;;2.47;;
11614;SDS011;5863;52.832;4.758;2024-02-04T11:30:50;7.28;;;2.35;;
11614;SDS011;5863;52.832;4.758;2024-02-04T11:33:20;12.23;;;2.70;;
11614;SDS011;5863;52.832;4.758;2024-02-04T11:35:57;10.50;;;2.40;;
11614;SDS011;5863;52.832;4.758;2024-02-04T11:38:29;14.18;;;3.03;;
11614;SDS011;5863;52.832;4.758;2024-02-04T11:40:57;13.40;;;2.45;;
11614;SDS011;5863;52.832;4.758;2024-02-04T11:43:24;10.48;;;2.58;;
11614;SDS011;5863;52.832;4.758;2024-02-04T11:45:51;15.20;;;3.00;;
11614;SDS011;5863;52.832;4.758;2024-02-04T11:48:28;11.45;;;2.33;;
11614;SDS011;5863;52.832;4.758;2024-02-04T11:50:56;13.63;;;2.70;;
11614;SDS011;5863;52.832;4.758;2024-02-04T11:53:25;10.48;;;2.35;;
11614;SDS011;5863;52.832;4.758;2024-02-04T11:55:54;10.45;;;2.22;;
11614;SDS011;5863;52.832;4.758;2024-02-04T11:58:21;10.73;;;2.33;;
11614;SDS011;5863;52.832;4.758;2024-02-04T12:00:50;9.05;;;2.78;;
11614;SDS011;5863;52.832;4.758;2024-02-04T12:03:27;11.73;;;2.05;;
11614;SDS011;5863;52.832;4.758;2024-02-04T12:05:56;14.02;;;2.67;;
11614;SDS011;5863;52.832;4.758;2024-02-04T12:08:24;8.55;;;1.90;;
11614;SDS011;5863;52.832;4.758;2024-02-04T12:10:53;8.63;;;2.03;;
11614;SDS011;5863;52.832;4.758;2024-02-04T12:13:21;11.13;;;2.08;;
11614;SDS011;5863;52.832;4.758;2024-02-04T12:15:48;6.45;;;2.10;;
11614;SDS011;5863;52.832;4.758;2024-02-04T12:18:15;15.30;;;2.65;;
11614;SDS011;5863;52.832;4.758;2024-02-04T12:20:46;9.10;;;2.15;;
11614;SDS011;5863;52.832;4.758;2024-02-04T12:23:14;12.20;;;2.45;;
11614;SDS011;5863;52.832;4.758;2024-02-04T12:25:42;10.10;;;2.35;;
11614;SDS011;5863;52.832;4.758;2024-02-04T12:28:09;14.18;;;2.55;;
11614;SDS011;5863;52.832;4.758;2024-02-04T12:30:37;8.70;;;2.30;;
11614;SDS011;5863;52.832;4.758;2024-02-04T12:33:04;12.30;;;2.03;;
11614;SDS011;5863;52.832;4.758;2024-02-04T12:35:32;10.55;;;2.08;;
11614;SDS011;5863;52.832;4.758;2024-02-04T12:38:00;9.68;;;2.35;;
11614;SDS011;5863;52.832;4.758;2024-02-04T12:40:28;8.80;;;1.80;;
11614;SDS011;5863;52.832;4.758;2024-02-04T12:42:56;10.15;;;2.15;;
11614;SDS011;5863;52.832;4.758;2024-02-04T12:45:24;10.45;;;2.25;;
11614;SDS011;5863;52.832;4.758;2024-02-04T12:47:52;8.20;;;1.77;;
11614;SDS011;5863;52.832;4.758;2024-02-04T12:50:20;11.80;;;2.10;;
11614;SDS011;5863;52.832;4.758;2024-02-04T12:52:48;8.60;;;1.80;;
11614;SDS011;5863;52.832;4.758;2024-02-04T12:55:28;6.80;;;1.75;;
11614;SDS011;5863;52.832;4.758;2024-02-04T12:58:03;12.07;;;2.05;;
11614;SDS011;5863;52.832;4.758;2024-02-04T13:00:31;13.05;;;2.53;;
11614;SDS011;5863;52.832;4.758;2024-02-04T13:02:58;9.60;;;2.30;;
11614;SDS011;5863;52.832;4.758;2024-02-04T13:05:25;6.25;;;2.35;;
11614;SDS011;5863;52.832;4.758;2024-02-04T13:07:55;9.88;;;2.78;;
11614;SDS011;5863;52.832;4.758;2024-02-04T13:10:23;11.88;;;2.92;;
11614;SDS011;5863;52.832;4.758;2024-02-04T13:13:02;8.68;;;2.60;;
11614;SDS011;5863;52.832;4.758;2024-02-04T13:15:30;9.95;;;2.55;;
11614;SDS011;5863;52.832;4.758;2024-02-04T13:17:58;10.48;;;2.85;;
11614;SDS011;5863;52.832;4.758;2024-02-04T13:20:25;10.90;;;2.60;;
11614;SDS011;5863;52.832;4.758;2024-02-04T13:22:52;10.32;;;2.50;;
11614;SDS011;5863;52.832;4.758;2024-02-04T13:25:19;7.63;;;2.33;;
11614;SDS011;5863;52.832;4.758;2024-02-04T13:27:47;7.60;;;2.80;;
11614;SDS011;5863;52.832;4.758;2024-02-04T13:30:15;11.20;;;3.08;;
11614;SDS011;5863;52.832;4.758;2024-02-04T13:32:43;14.45;;;3.03;;
11614;SDS011;5863;52.832;4.758;2024-02-04T13:35:11;10.30;;;3.22;;
11614;SDS011;5863;52.832;4.758;2024-02-04T13:37:39;10.00;;;2.75;;
11614;SDS011;5863;52.832;4.758;2024-02-04T13:40:06;10.73;;;3.17;;
11614;SDS011;5863;52.832;4.758;2024-02-04T13:42:35;11.00;;;3.30;;
11614;SDS011;5863;52.832;4.758;2024-02-04T13:45:02;12.68;;;2.80;;
11614;SDS011;5863;52.832;4.758;2024-02-04T13:47:30;10.00;;;2.63;;
11614;SDS011;5863;52.832;4.758;2024-02-04T13:49:57;15.25;;;3.20;;
11614;SDS011;5863;52.832;4.758;2024-02-04T13:52:24;12.48;;;2.95;;
11614;SDS011;5863;52.832;4.758;2024-02-04T13:54:51;13.10;;;2.70;;
11614;SDS011;5863;52.832;4.758;2024-02-04T13:57:18;12.10;;;2.38;;
11614;SDS011;5863;52.832;4.758;2024-02-04T13:59:45;14.82;;;2.90;;
11614;SDS011;5863;52.832;4.758;2024-02-04T14:02:11;12.35;;;2.90;;
11614;SDS011;5863;52.832;4.758;2024-02-04T14:04:40;11.85;;;2.83;;
11614;SDS011;5863;52.832;4.758;2024-02-04T14:07:07;14.07;;;3.55;;
11614;SDS011;5863;52.832;4.758;2024-02-04T14:09:35;15.02;;;3.17;;
11614;SDS011;5863;52.832;4.758;2024-02-04T14:12:02;15.05;;;2.60;;
11614;SDS011;5863;52.832;4.758;2024-02-04T14:14:29;11.68;;;2.70;;
11614;SDS011;5863;52.832;4.758;2024-02-04T14:16:56;9.90;;;2.58;;
11614;SDS011;5863;52.832;4.758;2024-02-04T14:19:23;14.30;;;2.55;;
11614;SDS011;5863;52.832;4.758;2024-02-04T14:21:51;12.90;;;2.92;;
11614;SDS011;5863;52.832;4.758;2024-02-04T14:24:18;13.50;;;3.08;;
11614;SDS011;5863;52.832;4.758;2024-02-04T14:26:45;12.68;;;2.75;;
11614;SDS011;5863;52.832;4.758;2024-02-04T14:29:12;13.13;;;2.95;;
11614;SDS011;5863;52.832;4.758;2024-02-04T14:31:40;15.95;;;2.83;;
11614;SDS011;5863;52.832;4.758;2024-02-04T14:34:08;13.30;;;2.80;;
11614;SDS011;5863;52.832;4.758;2024-02-04T14:36:35;14.65;;;3.22;;
11614;SDS011;5863;52.832;4.758;2024-02-04T14:39:03;16.27;;;3.28;;
11614;SDS011;5863;52.832;4.758;2024-02-04T14:41:31;12.93;;;2.42;;
11614;SDS011;5863;52.832;4.758;2024-02-04T14:44:00;13.98;;;2.58;;
11614;SDS011;5863;52.832;4.758;2024-02-04T14:46:27;12.07;;;3.25;;
11614;SDS011;5863;52.832;4.758;2024-02-04T14:48:54;13.38;;;3.78;;
11614;SDS011;5863;52.832;4.758;2024-02-04T14:51:20;9.38;;;2.70;;
11614;SDS011;5863;52.832;4.758;2024-02-04T14:53:47;12.57;;;2.70;;